createdAt,value
2023-03-12T00:02:19.200Z,7.83
2023-03-12T00:04:46.853Z,6.80
2023-03-12T00:07:14.499Z,6.57
2023-03-12T00:09:42.077Z,6.80
2023-03-12T00:12:10.178Z,6.73
2023-03-12T00:14:37.938Z,6.43
2023-03-12T00:17:07.010Z,8.27
2023-03-12T00:19:34.979Z,7.43
2023-03-12T00:22:02.610Z,12.67
2023-03-12T00:24:30.563Z,8.20
2023-03-12T00:26:58.122Z,10.53
2023-03-12T00:29:25.732Z,7.83
2023-03-12T00:31:54.183Z,8.10
2023-03-12T00:34:23.163Z,9.33
2023-03-12T00:36:50.799Z,8.50
2023-03-12T00:39:18.554Z,7.87
2023-03-12T00:41:46.151Z,8.03
2023-03-12T00:44:13.753Z,8.13
2023-03-12T00:46:41.426Z,7.63
2023-03-12T00:49:09.230Z,8.23
2023-03-12T00:51:38.879Z,7.50
2023-03-12T00:54:06.613Z,6.83
2023-03-12T00:56:34.351Z,7.70
2023-03-12T00:59:02.016Z,8.40
2023-03-12T01:01:29.760Z,8.40
2023-03-12T01:03:58.866Z,7.50
2023-03-12T01:06:26.539Z,7.53
2023-03-12T01:08:55.765Z,8.17
2023-03-12T01:11:24.144Z,7.97
2023-03-12T01:13:51.877Z,7.00
2023-03-12T01:16:19.513Z,7.33
2023-03-12T01:18:47.142Z,7.57
2023-03-12T01:21:14.733Z,6.97
2023-03-12T01:23:42.288Z,6.47
2023-03-12T01:26:11.246Z,6.47
2023-03-12T01:28:38.917Z,7.37
2023-03-12T01:31:10.100Z,6.97
2023-03-12T01:33:37.814Z,7.13
2023-03-12T01:36:06.390Z,7.17
2023-03-12T01:38:34.067Z,6.03
2023-03-12T01:41:01.760Z,6.07
2023-03-12T01:43:32.552Z,5.97
2023-03-12T01:46:05.656Z,6.37
2023-03-12T01:48:37.852Z,5.33
2023-03-12T01:51:06.388Z,5.77
2023-03-12T01:53:34.493Z,5.10
2023-03-12T01:56:02.923Z,5.67
2023-03-12T01:58:34.643Z,6.63
2023-03-12T02:01:05.515Z,5.63
2023-03-12T02:03:34.186Z,6.23
2023-03-12T02:06:04.752Z,6.13
2023-03-12T02:08:32.321Z,6.37
2023-03-12T02:10:59.963Z,7.10
2023-03-12T02:13:28.028Z,6.57
2023-03-12T02:15:57.125Z,5.50
2023-03-12T02:18:25.040Z,7.27
2023-03-12T02:20:57.991Z,5.73
2023-03-12T02:23:31.630Z,6.83
2023-03-12T02:26:01.379Z,6.47
2023-03-12T02:28:30.380Z,6.07
2023-03-12T02:31:01.418Z,5.60
2023-03-12T02:33:29.137Z,5.43
2023-03-12T02:35:56.892Z,5.73
2023-03-12T02:38:36.773Z,5.93
2023-03-12T02:41:13.028Z,5.90
2023-03-12T02:43:41.104Z,5.50
2023-03-12T02:46:09.246Z,5.93
2023-03-12T02:48:36.940Z,5.23
2023-03-12T02:51:05.062Z,5.63
2023-03-12T02:53:32.678Z,6.40
2023-03-12T02:56:00.278Z,6.07
2023-03-12T02:58:29.212Z,5.73
2023-03-12T03:00:57.214Z,5.87
2023-03-12T03:03:24.904Z,6.07
2023-03-12T03:05:52.885Z,6.00
2023-03-12T03:08:20.584Z,5.50
2023-03-12T03:10:48.216Z,6.07
2023-03-12T03:13:16.100Z,5.33
2023-03-12T03:15:45.125Z,5.80
2023-03-12T03:18:12.729Z,5.80
2023-03-12T03:20:40.368Z,6.47
2023-03-12T03:23:08.301Z,6.20
2023-03-12T03:25:35.886Z,6.10
2023-03-12T03:28:03.561Z,5.77
2023-03-12T03:30:31.232Z,6.03
2023-03-12T03:33:00.184Z,5.83
2023-03-12T03:35:27.869Z,6.03
2023-03-12T03:37:55.536Z,6.83
2023-03-12T03:40:23.134Z,6.30
2023-03-12T03:42:50.711Z,6.63
2023-03-12T03:45:19.487Z,6.50
2023-03-12T03:47:47.107Z,6.00
2023-03-12T03:50:17.395Z,6.87
2023-03-12T03:52:45.082Z,5.57
2023-03-12T03:55:12.931Z,6.53
2023-03-12T03:57:40.508Z,5.70
2023-03-12T04:00:13.122Z,5.97
2023-03-12T04:02:40.771Z,7.83
2023-03-12T04:05:09.326Z,5.77
2023-03-12T04:07:38.269Z,5.97
2023-03-12T04:10:07.189Z,6.73
2023-03-12T04:12:34.877Z,7.87
2023-03-12T04:15:02.569Z,6.13
2023-03-12T04:17:30.210Z,5.67
2023-03-12T04:19:57.847Z,7.10
2023-03-12T04:22:25.618Z,7.30
2023-03-12T04:24:54.618Z,6.60
2023-03-12T04:27:22.221Z,5.63
2023-03-12T04:29:49.853Z,5.47
2023-03-12T04:32:17.654Z,6.20
2023-03-12T04:34:45.416Z,6.13
2023-03-12T04:37:13.853Z,6.00
2023-03-12T04:39:41.925Z,6.53
2023-03-12T04:42:11.568Z,6.53
2023-03-12T04:44:40.980Z,5.97
2023-03-12T04:47:08.695Z,5.97
2023-03-12T04:49:36.789Z,7.10
2023-03-12T04:52:04.433Z,6.20
2023-03-12T04:54:33.180Z,5.97
2023-03-12T04:57:00.753Z,6.33
2023-03-12T04:59:29.681Z,6.53
2023-03-12T05:01:57.349Z,6.27
2023-03-12T05:04:25.005Z,7.83
2023-03-12T05:06:52.648Z,6.20
2023-03-12T05:09:20.227Z,6.90
2023-03-12T05:11:47.907Z,6.80
2023-03-12T05:14:15.490Z,7.00
2023-03-12T05:16:44.532Z,7.40
2023-03-12T05:19:12.207Z,7.23
2023-03-12T05:21:41.429Z,7.50
2023-03-12T05:24:10.697Z,7.47
2023-03-12T05:26:38.742Z,7.20
2023-03-12T05:29:07.019Z,7.20
2023-03-12T05:31:35.534Z,7.50
2023-03-12T05:34:05.304Z,7.13
2023-03-12T05:36:32.898Z,7.27
2023-03-12T05:39:00.494Z,7.50
2023-03-12T05:41:30.207Z,6.90
2023-03-12T05:43:58.620Z,7.57
2023-03-12T05:46:27.096Z,6.77
2023-03-12T05:48:55.020Z,6.17
2023-03-12T05:51:24.017Z,6.87
2023-03-12T05:53:51.641Z,6.60
2023-03-12T05:56:19.643Z,8.47
2023-03-12T05:58:49.180Z,11.03
2023-03-12T06:01:20.245Z,11.70
2023-03-12T06:03:48.293Z,9.27
2023-03-12T06:06:16.112Z,10.93
2023-03-12T06:08:45.540Z,9.53
2023-03-12T06:11:13.509Z,8.63
2023-03-12T06:13:41.410Z,9.87
2023-03-12T06:16:10.971Z,7.60
2023-03-12T06:18:39.078Z,7.57
2023-03-12T06:21:14.720Z,8.67
2023-03-12T06:23:43.338Z,7.70
2023-03-12T06:26:13.156Z,7.13
2023-03-12T06:28:40.869Z,6.53
2023-03-12T06:31:09.085Z,9.10
2023-03-12T06:33:37.181Z,7.13
2023-03-12T06:36:06.440Z,7.27
2023-03-12T06:38:34.341Z,9.33
2023-03-12T06:41:03.830Z,7.03
2023-03-12T06:43:33.841Z,7.40
2023-03-12T06:46:02.801Z,9.30
2023-03-12T06:48:33.461Z,8.10
2023-03-12T06:51:01.097Z,8.77
2023-03-12T06:53:28.694Z,7.80
2023-03-12T06:55:56.305Z,9.40
2023-03-12T06:58:24.627Z,7.90
2023-03-12T07:00:54.039Z,8.60
2023-03-12T07:03:22.112Z,6.73
2023-03-12T07:05:51.083Z,6.87
2023-03-12T07:08:19.652Z,7.37
2023-03-12T07:10:47.542Z,7.73
2023-03-12T07:13:15.183Z,7.67
2023-03-12T07:15:43.148Z,8.70
2023-03-12T07:18:12.665Z,7.70
2023-03-12T07:20:41.592Z,7.10
2023-03-12T07:23:09.346Z,7.27
2023-03-12T07:25:37.561Z,6.70
2023-03-12T07:28:05.805Z,7.23
2023-03-12T07:30:33.838Z,7.83
2023-03-12T07:33:02.025Z,7.07
2023-03-12T07:35:31.553Z,8.27
2023-03-12T07:37:59.403Z,8.27
2023-03-12T07:40:27.615Z,7.77
2023-03-12T07:42:55.185Z,7.33
2023-03-12T07:45:23.195Z,7.67
2023-03-12T07:47:51.646Z,7.80
2023-03-12T07:50:20.160Z,6.97
2023-03-12T07:52:49.310Z,7.77
2023-03-12T07:55:17.434Z,7.50
2023-03-12T07:57:45.554Z,8.07
2023-03-12T08:00:15.430Z,7.27
2023-03-12T08:02:43.478Z,6.40
2023-03-12T08:05:11.790Z,6.80
2023-03-12T08:07:39.480Z,7.03
2023-03-12T08:10:09.985Z,6.60
2023-03-12T08:12:38.242Z,6.83
2023-03-12T08:15:06.405Z,6.90
2023-03-12T08:17:34.206Z,6.53
2023-03-12T08:20:01.786Z,7.17
2023-03-12T08:22:29.371Z,6.50
2023-03-12T08:24:56.960Z,6.43
2023-03-12T08:27:25.913Z,6.07
2023-03-12T08:29:53.551Z,6.60
2023-03-12T08:32:21.300Z,6.63
2023-03-12T08:34:48.937Z,6.43
2023-03-12T08:37:16.590Z,6.90
2023-03-12T08:39:44.254Z,6.30
2023-03-12T08:42:11.859Z,6.67
2023-03-12T08:44:40.848Z,6.07
2023-03-12T08:47:08.439Z,8.13
2023-03-12T08:49:36.075Z,5.93
2023-03-12T08:52:03.676Z,6.37
2023-03-12T08:54:31.254Z,5.87
2023-03-12T08:56:58.950Z,6.03
2023-03-12T08:59:26.626Z,6.30
2023-03-12T09:01:55.552Z,6.83
2023-03-12T09:04:23.394Z,9.33
2023-03-12T09:06:51.075Z,7.03
2023-03-12T09:09:18.647Z,6.70
2023-03-12T09:11:46.228Z,6.10
2023-03-12T09:15:01.512Z,5.97
2023-03-12T09:17:04.086Z,5.53
2023-03-12T09:19:31.681Z,7.60
2023-03-12T09:21:59.316Z,6.07
2023-03-12T09:24:27.227Z,6.23
2023-03-12T09:26:54.808Z,6.53
2023-03-12T09:29:23.393Z,7.17
2023-03-12T09:31:51.129Z,6.20
2023-03-12T09:34:20.178Z,8.07
2023-03-12T09:36:47.790Z,6.60
2023-03-12T09:39:15.403Z,7.10
2023-03-12T09:41:47.602Z,7.13
2023-03-12T09:44:19.999Z,5.50
2023-03-12T09:46:50.809Z,10.73
2023-03-12T09:49:24.247Z,6.37
2023-03-12T09:51:54.742Z,5.93
2023-03-12T09:54:26.404Z,7.00
2023-03-12T09:56:56.150Z,5.63
2023-03-12T09:59:23.864Z,5.67
2023-03-12T10:01:53.925Z,5.57
2023-03-12T10:04:31.215Z,6.28
2023-03-12T10:07:03.541Z,5.97
2023-03-12T10:09:40.998Z,6.17
2023-03-12T10:12:16.358Z,5.93
2023-03-12T10:14:50.657Z,6.67
2023-03-12T10:17:29.603Z,6.00
2023-03-12T10:20:09.857Z,6.73
2023-03-12T10:22:47.913Z,5.70
2023-03-12T10:25:18.658Z,6.10
2023-03-12T10:27:47.328Z,4.83
2023-03-12T10:30:18.804Z,6.83
2023-03-12T10:32:49.075Z,6.50
2023-03-12T10:35:21.854Z,9.43
2023-03-12T10:37:55.371Z,5.10
2023-03-12T10:40:25.141Z,5.00
2023-03-12T10:42:53.307Z,4.50
2023-03-12T10:45:27.176Z,4.00
2023-03-12T10:47:57.387Z,4.30
2023-03-12T10:50:27.433Z,4.70
2023-03-12T10:53:13.900Z,6.60
2023-03-12T10:55:41.522Z,3.87
2023-03-12T10:58:23.360Z,5.43
2023-03-12T11:00:58.005Z,4.00
2023-03-12T11:03:27.011Z,3.47
2023-03-12T11:05:57.188Z,4.30
2023-03-12T11:08:27.233Z,4.53
2023-03-12T11:10:56.281Z,2.93
2023-03-12T11:13:30.143Z,22.77
2023-03-12T11:15:58.770Z,4.23
2023-03-12T11:18:34.528Z,4.27
2023-03-12T11:21:20.407Z,3.43
2023-03-12T11:24:07.149Z,4.90
2023-03-12T11:26:39.243Z,5.13
2023-03-12T11:29:25.439Z,4.57
2023-03-12T11:31:59.960Z,4.30
2023-03-12T11:34:30.248Z,4.87
2023-03-12T11:37:07.796Z,6.17
2023-03-12T11:39:44.343Z,5.10
2023-03-12T11:42:20.700Z,6.10
2023-03-12T11:44:55.409Z,6.53
2023-03-12T11:47:33.714Z,5.77
2023-03-12T11:50:11.743Z,6.80
2023-03-12T11:52:49.256Z,6.40
2023-03-12T11:55:21.401Z,6.57
2023-03-12T11:57:59.863Z,7.30
2023-03-12T12:00:31.218Z,6.23
2023-03-12T12:03:29.797Z,6.30
2023-03-12T12:06:02.481Z,6.27
2023-03-12T12:08:41.681Z,6.80
2023-03-12T12:11:14.154Z,6.90
2023-03-12T12:13:51.324Z,6.97
2023-03-12T12:16:26.592Z,8.77
2023-03-12T12:19:05.692Z,8.10
2023-03-12T12:21:43.082Z,8.33
2023-03-12T12:24:21.724Z,8.33
2023-03-12T12:26:53.923Z,9.07
2023-03-12T12:29:26.891Z,8.93
2023-03-12T12:31:56.663Z,10.10
2023-03-12T12:34:41.427Z,11.73
2023-03-12T12:37:33.314Z,9.33
2023-03-12T12:40:09.358Z,9.13
2023-03-12T12:42:48.279Z,9.97
2023-03-12T12:45:17.817Z,8.73
2023-03-12T12:47:48.697Z,8.73
2023-03-12T12:50:19.847Z,8.73
2023-03-12T12:52:51.630Z,8.73
2023-03-12T12:55:24.084Z,8.90
2023-03-12T12:57:56.119Z,9.47
2023-03-12T13:00:42.909Z,8.73
2023-03-12T13:03:15.326Z,8.90
2023-03-12T13:05:47.372Z,8.70
2023-03-12T13:08:35.109Z,9.80
2023-03-12T13:11:18.171Z,9.13
2023-03-12T13:13:50.241Z,8.10
2023-03-12T13:16:20.977Z,8.70
2023-03-12T13:18:57.885Z,8.90
2023-03-12T13:21:29.817Z,8.53
2023-03-12T13:24:06.670Z,8.07
2023-03-12T13:26:48.362Z,10.00
2023-03-12T13:29:23.378Z,9.10
2023-03-12T13:31:51.077Z,9.13
2023-03-12T13:34:45.624Z,8.80
2023-03-12T13:37:31.872Z,8.40
2023-03-12T13:40:07.948Z,9.43
2023-03-12T13:42:42.612Z,11.37
2023-03-12T13:45:28.479Z,9.00
2023-03-12T13:48:00.749Z,8.43
2023-03-12T13:50:30.164Z,9.77
2023-03-12T13:53:04.398Z,9.07
2023-03-12T13:55:33.371Z,16.63
2023-03-12T13:58:08.199Z,9.10
2023-03-12T14:00:39.495Z,10.13
2023-03-12T14:03:13.959Z,9.37
2023-03-12T14:05:48.500Z,10.17
2023-03-12T14:08:29.892Z,9.47
2023-03-12T14:11:04.579Z,8.57
2023-03-12T14:13:44.630Z,9.77
2023-03-12T14:16:19.445Z,9.30
2023-03-12T14:18:47.548Z,9.90
2023-03-12T14:21:17.343Z,18.77
2023-03-12T14:23:47.760Z,11.20
2023-03-12T14:26:20.474Z,10.80
2023-03-12T14:28:57.243Z,11.13
2023-03-12T14:31:25.019Z,10.77
2023-03-12T14:33:57.413Z,11.80
2023-03-12T14:36:28.100Z,10.27
2023-03-12T14:39:01.221Z,12.17
2023-03-12T14:41:31.361Z,12.73
2023-03-12T14:44:06.526Z,11.93
2023-03-12T14:46:34.223Z,11.17
2023-03-12T14:49:02.014Z,13.20
2023-03-12T14:51:31.166Z,11.47
2023-03-12T14:54:03.674Z,12.17
2023-03-12T14:56:34.808Z,13.17
2023-03-12T14:59:21.941Z,13.27
2023-03-12T15:01:49.914Z,13.60
2023-03-12T15:04:20.101Z,14.27
2023-03-12T15:06:49.489Z,14.13
2023-03-12T15:09:19.317Z,15.23
2023-03-12T15:11:53.253Z,16.47
2023-03-12T15:14:22.749Z,15.80
2023-03-12T15:16:51.011Z,14.87
2023-03-12T15:19:21.871Z,15.33
2023-03-12T15:21:49.817Z,16.37
2023-03-12T15:24:18.123Z,15.47
2023-03-12T15:26:45.740Z,16.27
2023-03-12T15:29:26.530Z,17.07
2023-03-12T15:31:56.276Z,15.33
2023-03-12T15:34:32.265Z,16.13
2023-03-12T15:37:01.500Z,17.07
2023-03-12T15:39:31.760Z,19.27
2023-03-12T15:42:02.284Z,18.70
2023-03-12T15:44:37.205Z,30.13
2023-03-12T15:47:12.278Z,18.43
2023-03-12T15:49:40.299Z,18.80
2023-03-12T15:52:27.293Z,17.03
2023-03-12T15:55:09.267Z,19.40
2023-03-12T15:57:46.063Z,18.90
2023-03-12T16:00:27.170Z,19.80
2023-03-12T16:02:57.211Z,19.43
2023-03-12T16:05:27.765Z,17.43
2023-03-12T16:07:55.520Z,17.43
2023-03-12T16:10:24.814Z,19.10
2023-03-12T16:12:57.577Z,16.83
2023-03-12T16:15:30.961Z,16.47
2023-03-12T16:17:58.610Z,17.97
2023-03-12T16:20:26.493Z,19.50
2023-03-12T16:22:54.234Z,19.20
2023-03-12T16:25:22.196Z,20.53
2023-03-12T16:27:52.766Z,19.47
2023-03-12T16:30:24.512Z,21.90
2023-03-12T16:32:53.622Z,18.63
2023-03-12T16:35:22.065Z,17.30
2023-03-12T16:37:49.905Z,18.83
2023-03-12T16:40:32.616Z,18.20
2023-03-12T16:43:02.740Z,20.70
2023-03-12T16:45:31.311Z,17.23
2023-03-12T16:48:03.720Z,16.63
2023-03-12T16:50:31.562Z,18.63
2023-03-12T16:52:59.849Z,18.97
2023-03-12T16:55:30.772Z,18.83
2023-03-12T16:58:00.649Z,17.77
2023-03-12T17:00:30.219Z,21.93
2023-03-12T17:02:59.117Z,20.23
2023-03-12T17:05:29.619Z,24.93
2023-03-12T17:07:58.361Z,27.30
2023-03-12T17:10:27.186Z,22.23
2023-03-12T17:12:56.788Z,19.77
2023-03-12T17:15:26.860Z,24.07
2023-03-12T17:17:55.744Z,20.57
2023-03-12T17:20:25.313Z,20.63
2023-03-12T17:22:54.325Z,19.53
2023-03-12T17:25:24.177Z,21.97
2023-03-12T17:27:51.936Z,21.73
2023-03-12T17:30:21.600Z,22.70
2023-03-12T17:32:49.514Z,22.23
2023-03-12T17:35:17.672Z,19.97
2023-03-12T17:37:45.489Z,22.40
2023-03-12T17:40:15.803Z,23.90
2023-03-12T17:42:43.568Z,24.33
2023-03-12T17:45:12.617Z,21.00
2023-03-12T17:47:40.398Z,21.50
2023-03-12T17:50:08.734Z,20.47
2023-03-12T17:52:36.505Z,21.03
2023-03-12T17:55:04.928Z,22.90
2023-03-12T17:57:33.888Z,21.67
2023-03-12T18:00:01.803Z,23.27
2023-03-12T18:02:29.607Z,23.87
2023-03-12T18:04:57.263Z,22.83
2023-03-12T18:07:24.883Z,22.23
2023-03-12T18:09:52.552Z,23.53
2023-03-12T18:12:20.149Z,24.87
2023-03-12T18:14:49.184Z,27.80
2023-03-12T18:17:17.050Z,24.30
2023-03-12T18:19:44.836Z,26.10
2023-03-12T18:22:14.804Z,28.10
2023-03-12T18:24:42.761Z,26.27
2023-03-12T18:27:10.634Z,26.57
2023-03-12T18:29:40.658Z,24.00
2023-03-12T18:32:10.378Z,25.77
2023-03-12T18:34:41.307Z,27.70
2023-03-12T18:37:09.008Z,26.53
2023-03-12T18:39:36.632Z,27.43
2023-03-12T18:42:04.538Z,25.33
2023-03-12T18:44:32.756Z,28.17
2023-03-12T18:47:01.598Z,26.30
2023-03-12T18:49:30.664Z,24.30
2023-03-12T18:51:58.303Z,24.67
2023-03-12T18:54:25.969Z,25.20
2023-03-12T18:56:54.418Z,21.87
2023-03-12T18:59:22.056Z,22.90
2023-03-12T19:01:49.675Z,22.83
2023-03-12T19:04:19.198Z,25.17
2023-03-12T19:06:51.646Z,23.20
2023-03-12T19:09:19.843Z,23.47
2023-03-12T19:11:47.704Z,25.70
2023-03-12T19:14:15.389Z,30.83
2023-03-12T19:16:43.399Z,27.57
2023-03-12T19:19:11.055Z,24.03
2023-03-12T19:21:38.726Z,25.27
2023-03-12T19:24:07.900Z,24.33
2023-03-12T19:26:35.633Z,24.67
2023-03-12T19:29:03.278Z,25.53
2023-03-12T19:31:30.961Z,24.87
2023-03-12T19:33:58.629Z,23.57
2023-03-12T19:36:26.738Z,25.30
2023-03-12T19:38:54.329Z,25.23
2023-03-12T19:41:23.290Z,25.73
2023-03-12T19:43:50.944Z,25.33
2023-03-12T19:46:18.618Z,28.93
2023-03-12T19:48:46.226Z,26.63
2023-03-12T19:51:14.802Z,25.07
2023-03-12T19:53:43.282Z,26.77
2023-03-12T19:56:15.199Z,25.00
2023-03-12T19:58:45.216Z,28.37
2023-03-12T20:01:12.976Z,27.27
2023-03-12T20:03:43.868Z,28.77
2023-03-12T20:06:12.674Z,25.30
2023-03-12T20:08:40.495Z,27.80
2023-03-12T20:11:11.508Z,26.27
2023-03-12T20:13:39.306Z,28.10
2023-03-12T20:16:11.639Z,25.70
2023-03-12T20:18:39.323Z,27.53
2023-03-12T20:21:07.372Z,28.67
2023-03-12T20:23:35.098Z,25.30
2023-03-12T20:26:04.137Z,29.20
2023-03-12T20:28:31.781Z,32.67
2023-03-12T20:30:59.437Z,26.83
2023-03-12T20:33:28.486Z,29.33
2023-03-12T20:35:56.279Z,26.37
2023-03-12T20:38:24.241Z,26.47
2023-03-12T20:40:51.928Z,29.67
2023-03-12T20:43:19.566Z,26.07
2023-03-12T20:45:48.587Z,26.83
2023-03-12T20:48:16.233Z,29.77
2023-03-12T20:50:45.746Z,30.90
2023-03-12T20:53:13.396Z,29.60
2023-03-12T20:55:41.286Z,30.00
2023-03-12T20:58:08.910Z,34.97
2023-03-12T21:00:36.552Z,30.03
2023-03-12T21:03:04.167Z,27.40
2023-03-12T21:05:31.813Z,28.43
2023-03-12T21:08:00.823Z,28.90
2023-03-12T21:10:30.444Z,29.63
2023-03-12T21:12:59.539Z,30.90
2023-03-12T21:15:27.327Z,28.50
2023-03-12T21:17:54.946Z,28.43
2023-03-12T21:20:23.602Z,26.73
2023-03-12T21:22:51.243Z,28.37
2023-03-12T21:25:20.351Z,26.43
2023-03-12T21:27:51.482Z,29.60
2023-03-12T21:30:19.762Z,29.27
2023-03-12T21:32:47.484Z,29.13
2023-03-12T21:35:15.096Z,25.93
2023-03-12T21:37:42.727Z,29.07
2023-03-12T21:40:11.820Z,28.67
2023-03-12T21:42:40.891Z,26.37
2023-03-12T21:45:10.093Z,27.30
2023-03-12T21:47:37.707Z,26.80
2023-03-12T21:50:06.162Z,27.37
2023-03-12T21:52:41.295Z,26.10
2023-03-12T21:55:11.323Z,24.17
2023-03-12T21:57:40.366Z,25.77
2023-03-12T22:00:12.519Z,24.57
2023-03-12T22:02:40.522Z,27.93
2023-03-12T22:05:08.933Z,25.37
2023-03-12T22:07:36.734Z,27.27
2023-03-12T22:10:04.989Z,24.57
2023-03-12T22:12:32.582Z,24.30
2023-03-12T22:15:01.587Z,25.53
2023-03-12T22:17:29.174Z,24.17
2023-03-12T22:19:56.826Z,26.30
2023-03-12T22:22:24.533Z,24.03
2023-03-12T22:24:52.154Z,23.63
2023-03-12T22:27:19.759Z,25.87
2023-03-12T22:29:50.258Z,24.83
2023-03-12T22:32:19.342Z,25.20
2023-03-12T22:34:47.112Z,26.37
2023-03-12T22:37:14.731Z,23.67
2023-03-12T22:39:43.209Z,25.30
2023-03-12T22:42:10.834Z,24.77
2023-03-12T22:44:40.732Z,25.03
2023-03-12T22:47:08.595Z,24.67
2023-03-12T22:49:37.550Z,24.00
2023-03-12T22:52:05.691Z,24.07
2023-03-12T22:54:33.490Z,23.90
2023-03-12T22:57:01.088Z,24.67
2023-03-12T22:59:28.684Z,23.93
2023-03-12T23:01:56.329Z,23.80
2023-03-12T23:04:24.157Z,24.83
2023-03-12T23:06:59.079Z,26.07
2023-03-12T23:09:32.078Z,28.23
2023-03-12T23:11:59.694Z,26.53
2023-03-12T23:14:27.284Z,24.63
2023-03-12T23:16:57.476Z,24.43
2023-03-12T23:19:25.039Z,24.63
2023-03-12T23:21:54.006Z,24.57
2023-03-12T23:24:22.133Z,24.20
2023-03-12T23:26:49.762Z,25.67
2023-03-12T23:29:17.396Z,24.97
2023-03-12T23:31:45.301Z,21.93
2023-03-12T23:34:12.952Z,22.87
2023-03-12T23:36:40.696Z,24.37
2023-03-12T23:39:09.861Z,26.00
2023-03-12T23:41:37.638Z,22.80
2023-03-12T23:44:05.658Z,22.13
2023-03-12T23:46:33.525Z,22.53
2023-03-12T23:49:01.176Z,26.47
2023-03-12T23:51:30.292Z,23.63
2023-03-12T23:54:00.026Z,20.77
2023-03-12T23:56:33.161Z,22.83
2023-03-12T23:59:00.796Z,20.97
